createdAt,value
2018-12-24T00:02:00.000Z,7.2
2018-12-24T00:07:00.000Z,7.2
2018-12-24T00:12:00.000Z,7.3
2018-12-24T00:17:00.000Z,7.2
2018-12-24T00:22:00.000Z,7.3
2018-12-24T00:27:00.000Z,7.2
2018-12-24T00:32:00.000Z,7.3
2018-12-24T00:37:00.000Z,7.3
2018-12-24T00:42:00.000Z,7.3
2018-12-24T00:47:00.000Z,7.3
2018-12-24T00:52:00.000Z,7.3
2018-12-24T00:57:00.000Z,7.3
2018-12-24T01:02:00.000Z,7.2
2018-12-24T01:07:00.000Z,7.2
2018-12-24T01:12:00.000Z,7.2
2018-12-24T01:17:00.000Z,7.1
2018-12-24T01:22:00.000Z,7.1
2018-12-24T01:27:00.000Z,7.1
2018-12-24T01:32:00.000Z,7.0
2018-12-24T01:37:00.000Z,7.0
2018-12-24T01:42:00.000Z,7.0
2018-12-24T01:47:00.000Z,7.0
2018-12-24T01:52:00.000Z,6.9
2018-12-24T01:57:00.000Z,7.0
2018-12-24T02:02:00.000Z,7.0
2018-12-24T02:07:00.000Z,7.0
2018-12-24T02:12:00.000Z,7.0
2018-12-24T02:17:00.000Z,7.0
2018-12-24T02:22:00.000Z,7.1
2018-12-24T02:27:00.000Z,7.2
2018-12-24T02:32:00.000Z,7.3
2018-12-24T02:37:00.000Z,7.3
2018-12-24T02:42:00.000Z,7.4
2018-12-24T02:47:00.000Z,7.5
2018-12-24T02:52:00.000Z,7.5
2018-12-24T02:57:00.000Z,7.6
2018-12-24T03:02:00.000Z,7.6
2018-12-24T03:07:00.000Z,7.6
2018-12-24T03:12:00.000Z,7.5
2018-12-24T03:18:00.000Z,7.6
2018-12-24T03:23:00.000Z,7.7
2018-12-24T03:28:00.000Z,7.8
2018-12-24T03:33:00.000Z,7.9
2018-12-24T03:38:00.000Z,7.9
2018-12-24T03:43:00.000Z,7.9
2018-12-24T03:48:00.000Z,7.9
2018-12-24T03:53:00.000Z,8.0
2018-12-24T03:58:00.000Z,8.0
2018-12-24T04:03:00.000Z,7.9
2018-12-24T04:08:00.000Z,7.8
2018-12-24T04:13:00.000Z,7.7
2018-12-24T04:18:00.000Z,7.7
2018-12-24T04:23:00.000Z,7.7
2018-12-24T04:28:00.000Z,7.6
2018-12-24T04:33:00.000Z,7.6
2018-12-24T04:38:00.000Z,7.6
2018-12-24T04:43:00.000Z,7.6
2018-12-24T04:48:00.000Z,7.5
2018-12-24T04:53:00.000Z,7.5
2018-12-24T04:58:00.000Z,7.4
2018-12-24T05:03:00.000Z,7.2
2018-12-24T05:08:00.000Z,7.1
2018-12-24T05:13:00.000Z,7.0
2018-12-24T05:18:00.000Z,7.0
2018-12-24T05:23:00.000Z,7.0
2018-12-24T05:28:00.000Z,6.9
2018-12-24T05:33:00.000Z,6.9
2018-12-24T05:38:00.000Z,6.7
2018-12-24T05:43:00.000Z,6.6
2018-12-24T05:48:00.000Z,6.6
2018-12-24T05:53:00.000Z,6.5
2018-12-24T05:58:00.000Z,6.5
2018-12-24T06:03:00.000Z,6.4
2018-12-24T06:08:00.000Z,6.3
2018-12-24T06:13:00.000Z,6.0
2018-12-24T06:18:00.000Z,5.8
2018-12-24T06:23:00.000Z,5.4
2018-12-24T06:29:00.000Z,5.1
2018-12-24T06:34:00.000Z,4.9
2018-12-24T06:39:00.000Z,4.7
2018-12-24T06:44:00.000Z,4.6
2018-12-24T06:49:00.000Z,4.6
2018-12-24T06:54:00.000Z,4.5
2018-12-24T06:59:00.000Z,4.5
2018-12-24T07:04:00.000Z,4.4
2018-12-24T07:09:00.000Z,4.3
2018-12-24T07:14:00.000Z,4.2
2018-12-24T07:19:00.000Z,4.2
2018-12-24T07:24:00.000Z,4.1
2018-12-24T07:29:00.000Z,4.1
2018-12-24T07:34:00.000Z,4.0
2018-12-24T07:39:00.000Z,3.9
2018-12-24T07:44:00.000Z,3.9
2018-12-24T07:49:00.000Z,3.8
2018-12-24T07:54:00.000Z,3.8
2018-12-24T07:59:00.000Z,3.8
2018-12-24T08:04:00.000Z,3.8
2018-12-24T08:09:00.000Z,3.8
2018-12-24T08:14:00.000Z,3.8
2018-12-24T08:19:00.000Z,3.9
2018-12-24T08:24:00.000Z,3.9
2018-12-24T08:29:00.000Z,3.9
2018-12-24T08:34:00.000Z,4.0
2018-12-24T08:39:00.000Z,4.0
2018-12-24T08:44:00.000Z,4.1
2018-12-24T08:49:00.000Z,4.2
2018-12-24T08:54:00.000Z,4.4
2018-12-24T08:59:00.000Z,4.4
2018-12-24T09:04:00.000Z,4.5
2018-12-24T09:09:00.000Z,4.6
2018-12-24T09:14:00.000Z,4.6
2018-12-24T09:19:00.000Z,4.7
2018-12-24T09:24:00.000Z,4.7
2018-12-24T09:29:00.000Z,4.7
2018-12-24T09:34:00.000Z,4.7
2018-12-24T09:39:00.000Z,4.8
2018-12-24T09:44:00.000Z,4.7
2018-12-24T09:49:00.000Z,4.7
2018-12-24T09:55:00.000Z,4.8
2018-12-24T10:00:00.000Z,4.8
2018-12-24T10:05:00.000Z,4.8
2018-12-24T10:10:00.000Z,4.8
2018-12-24T10:15:00.000Z,4.9
2018-12-24T10:20:00.000Z,5.0
2018-12-24T10:25:00.000Z,5.1
2018-12-24T10:30:00.000Z,5.1
2018-12-24T10:35:00.000Z,5.3
2018-12-24T10:40:00.000Z,5.4
2018-12-24T10:45:00.000Z,5.5
2018-12-24T10:50:00.000Z,5.5
2018-12-24T10:55:00.000Z,5.6
2018-12-24T11:00:00.000Z,5.7
2018-12-24T11:05:00.000Z,5.8
2018-12-24T11:10:00.000Z,5.9
2018-12-24T11:15:00.000Z,5.8
2018-12-24T11:20:00.000Z,5.8
2018-12-24T11:25:00.000Z,5.9
2018-12-24T11:30:00.000Z,6.0
2018-12-24T11:35:00.000Z,6.0
2018-12-24T11:40:00.000Z,6.0
2018-12-24T11:45:00.000Z,6.0
2018-12-24T11:50:00.000Z,6.0
2018-12-24T11:55:00.000Z,6.0
2018-12-24T12:00:00.000Z,6.0
2018-12-24T12:05:00.000Z,6.1
2018-12-24T12:10:00.000Z,6.2
2018-12-24T12:15:00.000Z,6.2
2018-12-24T12:20:00.000Z,6.1
2018-12-24T12:25:00.000Z,6.1
2018-12-24T12:30:00.000Z,6.1
2018-12-24T12:35:00.000Z,6.0
2018-12-24T12:40:00.000Z,5.9
2018-12-24T12:45:00.000Z,5.9
2018-12-24T12:50:00.000Z,5.8
2018-12-24T12:55:00.000Z,5.8
2018-12-24T13:00:00.000Z,5.7
2018-12-24T13:05:00.000Z,5.6
2018-12-24T13:11:00.000Z,5.5
2018-12-24T13:16:00.000Z,5.4
2018-12-24T13:21:00.000Z,5.4
2018-12-24T13:26:00.000Z,5.3
2018-12-24T13:31:00.000Z,5.3
2018-12-24T13:36:00.000Z,5.2
2018-12-24T13:41:00.000Z,5.1
2018-12-24T13:46:00.000Z,5.1
2018-12-24T13:51:00.000Z,5.0
2018-12-24T13:56:00.000Z,5.0
2018-12-24T14:01:00.000Z,4.9
2018-12-24T14:06:00.000Z,4.9
2018-12-24T14:11:00.000Z,4.9
2018-12-24T14:16:00.000Z,4.9
2018-12-24T14:21:00.000Z,4.9
2018-12-24T14:26:00.000Z,4.9
2018-12-24T14:31:00.000Z,4.8
2018-12-24T14:36:00.000Z,4.8
2018-12-24T14:41:00.000Z,4.7
2018-12-24T14:46:00.000Z,4.6
2018-12-24T14:51:00.000Z,4.5
2018-12-24T14:56:00.000Z,4.5
2018-12-24T15:01:00.000Z,4.4
2018-12-24T15:06:00.000Z,4.4
2018-12-24T15:11:00.000Z,4.3
2018-12-24T15:16:00.000Z,4.3
2018-12-24T15:21:00.000Z,4.3
2018-12-24T15:26:00.000Z,4.2
2018-12-24T15:31:00.000Z,4.2
2018-12-24T15:36:00.000Z,4.2
2018-12-24T15:41:00.000Z,4.2
2018-12-24T15:46:00.000Z,4.2
2018-12-24T15:51:00.000Z,4.2
2018-12-24T15:56:00.000Z,4.2
2018-12-24T16:01:00.000Z,4.2
2018-12-24T16:06:00.000Z,4.2
2018-12-24T16:11:00.000Z,4.2
2018-12-24T16:16:00.000Z,4.2
2018-12-24T16:21:00.000Z,4.1
2018-12-24T16:26:00.000Z,4.1
2018-12-24T16:31:00.000Z,4.1
2018-12-24T16:36:00.000Z,4.1
2018-12-24T16:41:00.000Z,4.1
2018-12-24T16:46:00.000Z,4.1
2018-12-24T16:51:00.000Z,4.1
2018-12-24T16:57:00.000Z,4.2
2018-12-24T17:02:00.000Z,4.2
2018-12-24T17:07:00.000Z,4.2
2018-12-24T17:12:00.000Z,4.2
2018-12-24T17:17:00.000Z,4.2
2018-12-24T17:22:00.000Z,4.1
2018-12-24T17:27:00.000Z,4.1
2018-12-24T17:32:00.000Z,4.0
2018-12-24T17:37:00.000Z,4.0
2018-12-24T17:42:00.000Z,4.0
2018-12-24T17:47:00.000Z,3.9
2018-12-24T17:52:00.000Z,3.9
2018-12-24T17:57:00.000Z,3.9
2018-12-24T18:02:00.000Z,3.9
2018-12-24T18:07:00.000Z,3.9
2018-12-24T18:12:00.000Z,3.8
2018-12-24T18:17:00.000Z,3.8
2018-12-24T18:22:00.000Z,3.8
2018-12-24T18:27:00.000Z,3.8
2018-12-24T18:32:00.000Z,3.8
2018-12-24T18:37:00.000Z,3.9
2018-12-24T18:42:00.000Z,3.9
2018-12-24T18:47:00.000Z,3.9
2018-12-24T18:52:00.000Z,3.9
2018-12-24T18:57:00.000Z,3.9
2018-12-24T19:02:00.000Z,4.0
2018-12-24T19:07:00.000Z,4.0
2018-12-24T19:12:00.000Z,4.0
2018-12-24T19:17:00.000Z,4.1
2018-12-24T19:22:00.000Z,4.1
2018-12-24T19:27:00.000Z,4.2
2018-12-24T19:32:00.000Z,4.2
2018-12-24T19:37:00.000Z,4.2
2018-12-24T19:42:00.000Z,4.2
2018-12-24T19:47:00.000Z,4.2
2018-12-24T19:52:00.000Z,4.2
2018-12-24T19:57:00.000Z,4.1
2018-12-24T20:02:00.000Z,4.1
2018-12-24T20:07:00.000Z,4.1
2018-12-24T20:12:00.000Z,4.1
2018-12-24T20:17:00.000Z,4.1
2018-12-24T20:22:00.000Z,4.1
2018-12-24T20:27:00.000Z,4.1
2018-12-24T20:33:00.000Z,4.0
2018-12-24T20:38:00.000Z,4.0
2018-12-24T20:43:00.000Z,4.0
2018-12-24T20:48:00.000Z,4.0
2018-12-24T20:53:00.000Z,4.0
2018-12-24T20:58:00.000Z,4.0
2018-12-24T21:03:00.000Z,4.0
2018-12-24T21:08:00.000Z,4.0
2018-12-24T21:13:00.000Z,4.1
2018-12-24T21:18:00.000Z,4.1
2018-12-24T21:23:00.000Z,4.1
2018-12-24T21:28:00.000Z,4.1
2018-12-24T21:33:00.000Z,4.1
2018-12-24T21:38:00.000Z,4.1
2018-12-24T21:43:00.000Z,4.1
2018-12-24T21:48:00.000Z,4.1
2018-12-24T21:53:00.000Z,4.1
2018-12-24T21:58:00.000Z,4.1
2018-12-24T22:03:00.000Z,4.1
2018-12-24T22:08:00.000Z,4.1
2018-12-24T22:13:00.000Z,4.1
2018-12-24T22:18:00.000Z,4.1
2018-12-24T22:23:00.000Z,4.1
2018-12-24T22:28:00.000Z,4.1
2018-12-24T22:33:00.000Z,4.1
2018-12-24T22:38:00.000Z,4.1
2018-12-24T22:43:00.000Z,4.0
2018-12-24T22:48:00.000Z,4.0
2018-12-24T22:53:00.000Z,3.9
2018-12-24T22:58:00.000Z,3.9
2018-12-24T23:03:00.000Z,3.8
2018-12-24T23:08:00.000Z,3.7
2018-12-24T23:13:00.000Z,3.6
2018-12-24T23:18:00.000Z,3.5
2018-12-24T23:23:00.000Z,3.4
2018-12-24T23:28:00.000Z,3.3
2018-12-24T23:33:00.000Z,3.2
2018-12-24T23:38:00.000Z,3.1
2018-12-24T23:43:00.000Z,3.1
2018-12-24T23:48:00.000Z,3.1
2018-12-24T23:53:00.000Z,3.0
2018-12-24T23:58:00.000Z,2.9
